Time;durP1;ratioP1;P1;durP2;ratioP2;P2;SDS_P1;SDS_P2;PMS_P1;PMS_P2;Temp;Humidity;BMP_temperature;BMP_pressure;BME280_temperature;BME280_humidity;BME280_pressure;Samples;Min_cycle;Max_cycle;Signal;HPM_P1;HPM_P2
2022/10/30 00:01:31;;;;;;;47.07;17.43;;;9.70;99.90;;;;;;5103578;28;20976;-82
2022/10/30 00:03:58;;;;;;;30.20;13.77;;;9.70;99.90;;;;;;5105399;28;20454;-81
2022/10/30 00:06:25;;;;;;;269.23;42.47;;;9.70;99.90;;;;;;5098260;28;20520;-82
2022/10/30 00:08:54;;;;;;;95.57;17.53;;;9.70;99.90;;;;;;5101870;28;20507;-82
2022/10/30 00:11:21;;;;;;;33.87;12.30;;;9.80;99.90;;;;;;5100304;28;20462;-82
2022/10/30 00:13:48;;;;;;;202.07;36.10;;;9.80;99.90;;;;;;5098180;28;20476;-82
2022/10/30 00:16:15;;;;;;;69.47;15.77;;;9.90;99.90;;;;;;5092709;28;20532;-82
2022/10/30 00:18:42;;;;;;;87.57;19.83;;;10.00;99.90;;;;;;5092062;28;20524;-82
2022/10/30 00:21:11;;;;;;;142.47;28.07;;;10.20;99.90;;;;;;5088492;28;20490;-80
2022/10/30 00:23:39;;;;;;;55.43;13.57;;;10.10;99.90;;;;;;5085976;28;20507;-80
2022/10/30 00:26:08;;;;;;;89.30;20.10;;;10.00;99.90;;;;;;5090982;28;20458;-80
2022/10/30 00:28:35;;;;;;;34.20;16.90;;;9.90;99.90;;;;;;5095080;28;20482;-80
2022/10/30 00:31:03;;;;;;;38.33;15.07;;;9.80;99.90;;;;;;5097303;28;20458;-80
2022/10/30 00:33:30;;;;;;;166.23;31.90;;;9.60;99.90;;;;;;5097333;28;20536;-80
2022/10/30 00:35:57;;;;;;;57.73;19.00;;;9.60;99.90;;;;;;5094487;27;20964;-80
2022/10/30 00:38:24;;;;;;;84.47;17.60;;;9.50;99.90;;;;;;5096725;28;20443;-80
2022/10/30 00:40:51;;;;;;;41.97;17.30;;;9.60;99.90;;;;;;5100020;28;20546;-80
2022/10/30 00:43:32;;;;;;;50.57;14.57;;;9.60;99.90;;;;;;5103283;28;20450;-81
2022/10/30 00:46:03;;;;;;;74.43;18.53;;;9.60;99.90;;;;;;5090845;28;20495;-80
2022/10/30 00:48:30;;;;;;;131.17;22.93;;;9.50;99.90;;;;;;5092164;28;20458;-80
2022/10/30 00:50:59;;;;;;;41.37;12.87;;;9.50;99.90;;;;;;5105171;28;20499;-80
2022/10/30 00:53:27;;;;;;;103.20;19.97;;;9.40;99.90;;;;;;5093535;28;20459;-81
2022/10/30 00:55:57;;;;;;;82.47;15.73;;;9.40;99.90;;;;;;5098087;28;20467;-81
2022/10/30 00:58:28;;;;;;;76.90;17.40;;;9.40;99.90;;;;;;5107531;28;20894;-81
2022/10/30 01:00:59;;;;;;;58.33;15.10;;;9.30;99.90;;;;;;5104754;28;20482;-81
2022/10/30 01:03:28;;;;;;;33.73;11.70;;;9.30;99.90;;;;;;5096026;28;20459;-81
2022/10/30 01:05:58;;;;;;;51.50;13.37;;;9.20;99.90;;;;;;5105218;28;20586;-81
2022/10/30 01:08:26;;;;;;;26.63;11.03;;;9.10;99.90;;;;;;5102585;28;20526;-81
2022/10/30 01:10:53;;;;;;;25.90;11.30;;;9.10;99.90;;;;;;5097540;28;20534;-81
2022/10/30 01:13:22;;;;;;;32.83;13.07;;;9.00;99.90;;;;;;5085403;28;20587;-81
2022/10/30 01:16:02;;;;;;;23.80;10.67;;;9.00;99.90;;;;;;5086996;28;20527;-81
2022/10/30 01:18:37;;;;;;;22.57;10.10;;;8.90;99.90;;;;;;5092948;28;20461;-82
2022/10/30 01:21:31;;;;;;;25.00;9.90;;;8.90;99.90;;;;;;5096782;27;20545;-81
2022/10/30 01:24:15;;;;;;;29.03;9.60;;;8.90;99.90;;;;;;5107136;28;20462;-81
2022/10/30 01:26:49;;;;;;;18.07;8.90;;;8.80;99.90;;;;;;5093251;28;21122;-81
2022/10/30 01:29:28;;;;;;;24.63;12.27;;;8.70;99.90;;;;;;5102970;28;20519;-81
2022/10/30 01:32:12;;;;;;;12.73;6.00;;;8.60;99.90;;;;;;5105104;28;20518;-81
2022/10/30 01:34:46;;;;;;;39.97;12.50;;;8.60;99.90;;;;;;5095805;28;20461;-81
2022/10/30 01:37:20;;;;;;;38.67;10.87;;;8.60;99.90;;;;;;5105254;28;21080;-81
2022/10/30 01:39:47;;;;;;;21.80;8.77;;;8.80;99.90;;;;;;5093986;28;20465;-80
2022/10/30 01:42:44;;;;;;;11.37;6.27;;;8.80;99.90;;;;;;5107682;28;20508;-80
2022/10/30 01:45:14;;;;;;;23.20;10.13;;;8.90;99.90;;;;;;5102712;28;20454;-81
2022/10/30 01:47:52;;;;;;;12.33;7.13;;;8.90;99.90;;;;;;5092373;28;20471;-81
2022/10/30 01:50:32;;;;;;;8.20;7.30;;;9.00;99.90;;;;;;5087793;28;20467;-81
2022/10/30 01:53:05;;;;;;;6.70;5.93;;;9.10;99.90;;;;;;5090854;28;20523;-81
2022/10/30 01:55:41;;;;;;;7.63;6.90;;;9.10;99.90;;;;;;5101255;28;20458;-81
2022/10/30 01:58:17;;;;;;;7.87;7.07;;;9.20;99.90;;;;;;5105639;28;20465;-81
2022/10/30 02:00:48;;;;;;;8.67;7.93;;;9.10;99.90;;;;;;5101669;28;20566;-81
2022/10/30 02:03:16;;;;;;;14.70;8.13;;;9.10;99.90;;;;;;5100246;28;20459;-81
2022/10/30 02:05:48;;;;;;;11.50;8.57;;;9.20;99.90;;;;;;5095405;28;20533;-81
2022/10/30 02:08:15;;;;;;;6.93;6.33;;;9.20;99.90;;;;;;5094592;28;20869;-81
2022/10/30 02:10:44;;;;;;;8.93;6.90;;;9.20;99.90;;;;;;5088385;28;20456;-81
2022/10/30 02:13:11;;;;;;;8.30;7.50;;;9.20;99.90;;;;;;5098993;28;20506;-81
2022/10/30 02:15:39;;;;;;;7.03;6.43;;;9.20;99.90;;;;;;5106277;28;20450;-81
2022/10/30 02:18:06;;;;;;;9.13;6.30;;;9.20;99.90;;;;;;5107677;28;20522;-81
2022/10/30 02:20:34;;;;;;;9.17;6.70;;;9.20;99.90;;;;;;5105036;28;20510;-81
2022/10/30 02:23:02;;;;;;;9.80;6.90;;;9.20;99.90;;;;;;5106810;28;20477;-81
2022/10/30 02:25:29;;;;;;;6.50;6.03;;;9.20;99.90;;;;;;5099367;28;20522;-81
2022/10/30 02:27:56;;;;;;;10.40;5.77;;;9.20;99.90;;;;;;5107243;28;20503;-81
2022/10/30 02:30:22;;;;;;;10.27;5.60;;;9.10;99.90;;;;;;5097110;28;20438;-81
2022/10/30 02:32:49;;;;;;;6.30;5.80;;;9.00;99.90;;;;;;5089244;28;20455;-81
2022/10/30 02:35:16;;;;;;;5.83;5.23;;;9.00;99.90;;;;;;5101946;28;20463;-81
2022/10/30 02:37:47;;;;;;;15.30;6.90;;;8.90;99.90;;;;;;5098254;28;20465;-81
2022/10/30 02:40:14;;;;;;;26.90;8.50;;;8.90;99.90;;;;;;5104819;28;20457;-81
2022/10/30 02:42:42;;;;;;;15.63;7.13;;;8.90;99.90;;;;;;5090370;27;20887;-81
2022/10/30 02:45:10;;;;;;;30.67;8.80;;;8.80;99.90;;;;;;5078476;28;20465;-81
2022/10/30 02:47:37;;;;;;;40.60;10.40;;;8.70;99.90;;;;;;5076949;28;20465;-81
2022/10/30 02:50:04;;;;;;;39.37;10.80;;;8.60;99.90;;;;;;5077563;28;20458;-81
2022/10/30 02:52:32;;;;;;;35.80;9.33;;;8.50;99.90;;;;;;5077134;28;21008;-81
2022/10/30 02:55:00;;;;;;;34.07;12.13;;;8.30;99.90;;;;;;5078448;28;20570;-81
2022/10/30 02:57:27;;;;;;;14.23;9.73;;;8.30;99.90;;;;;;5079078;28;20470;-81
2022/10/30 02:59:55;;;;;;;19.57;10.07;;;8.30;99.90;;;;;;5079527;28;20454;-81
2022/10/30 03:02:22;;;;;;;14.43;6.80;;;8.20;99.90;;;;;;5082813;28;20509;-80
2022/10/30 03:04:49;;;;;;;9.43;8.43;;;8.10;99.90;;;;;;5090349;28;20536;-81
2022/10/30 03:07:16;;;;;;;10.67;7.60;;;8.10;99.90;;;;;;5089060;28;21012;-81
2022/10/30 03:09:43;;;;;;;7.50;6.90;;;8.10;99.90;;;;;;5087182;28;21180;-81
2022/10/30 03:12:11;;;;;;;6.17;5.67;;;8.20;99.90;;;;;;5079927;28;20483;-81
2022/10/30 03:14:38;;;;;;;6.57;6.07;;;8.30;99.90;;;;;;5075915;28;20498;-81
2022/10/30 03:17:05;;;;;;;14.60;6.20;;;8.30;99.90;;;;;;5077634;28;20486;-81
2022/10/30 03:19:32;;;;;;;11.40;6.43;;;8.30;99.90;;;;;;5075944;28;20512;-81
2022/10/30 03:21:59;;;;;;;7.53;6.90;;;8.30;99.90;;;;;;5080538;28;20490;-81
2022/10/30 03:24:26;;;;;;;5.07;4.53;;;8.30;99.90;;;;;;5083649;28;20520;-81
2022/10/30 03:26:53;;;;;;;6.20;5.70;;;8.20;99.90;;;;;;5081531;27;20498;-81
2022/10/30 03:29:21;;;;;;;5.30;4.80;;;8.10;99.90;;;;;;5097403;28;20446;-81
2022/10/30 03:31:48;;;;;;;6.07;5.57;;;8.10;99.90;;;;;;5096447;28;20539;-81
2022/10/30 03:34:15;;;;;;;5.63;5.20;;;8.20;99.90;;;;;;5098673;28;20455;-81
2022/10/30 03:36:42;;;;;;;6.73;6.27;;;8.30;99.90;;;;;;5096884;28;20831;-81
2022/10/30 03:39:09;;;;;;;7.60;6.50;;;8.30;99.90;;;;;;5090427;28;20499;-81
2022/10/30 03:41:36;;;;;;;4.93;4.63;;;8.20;99.90;;;;;;5101770;28;20880;-81
2022/10/30 03:44:03;;;;;;;5.17;4.77;;;8.20;99.90;;;;;;5103676;28;20920;-81
2022/10/30 03:46:31;;;;;;;4.70;4.40;;;8.10;99.90;;;;;;5100492;28;20447;-81
2022/10/30 03:48:59;;;;;;;4.40;4.00;;;8.00;99.90;;;;;;5093341;28;20462;-81
2022/10/30 03:51:26;;;;;;;6.40;5.80;;;8.00;99.90;;;;;;5105853;28;20510;-81
2022/10/30 03:53:53;;;;;;;5.60;4.87;;;8.10;99.90;;;;;;5091797;28;20442;-81
2022/10/30 03:56:20;;;;;;;4.63;4.20;;;8.10;99.90;;;;;;5106269;28;20893;-81
2022/10/30 03:58:46;;;;;;;5.30;4.90;;;8.20;99.90;;;;;;5093196;28;20517;-81
2022/10/30 04:01:13;;;;;;;5.20;4.90;;;8.10;99.90;;;;;;5102190;28;20447;-81
2022/10/30 04:03:42;;;;;;;6.40;5.90;;;8.00;99.90;;;;;;5095255;28;20493;-81
2022/10/30 04:06:09;;;;;;;4.77;4.47;;;8.00;99.90;;;;;;5097173;28;20540;-81
2022/10/30 04:08:36;;;;;;;5.70;5.30;;;7.90;99.90;;;;;;5093731;28;20475;-81
2022/10/30 04:11:03;;;;;;;5.43;5.03;;;7.90;99.90;;;;;;5096473;28;20450;-81
2022/10/30 04:13:30;;;;;;;5.43;5.13;;;7.80;99.90;;;;;;5090093;28;20508;-81
2022/10/30 04:15:57;;;;;;;8.53;7.03;;;7.80;99.90;;;;;;5092894;28;20454;-81
2022/10/30 04:18:24;;;;;;;6.77;6.27;;;7.60;99.90;;;;;;5100656;28;20508;-81
2022/10/30 04:20:53;;;;;;;4.30;4.00;;;7.60;99.90;;;;;;5094476;28;20528;-81
2022/10/30 04:23:21;;;;;;;4.50;4.10;;;7.60;99.90;;;;;;5104166;28;20527;-81
2022/10/30 04:25:48;;;;;;;4.20;4.00;;;7.60;99.90;;;;;;5087010;28;20463;-81
2022/10/30 04:28:16;;;;;;;5.40;4.90;;;7.60;99.90;;;;;;5074041;28;20603;-81
2022/10/30 04:30:45;;;;;;;4.67;4.33;;;7.50;99.90;;;;;;5073089;28;20490;-81
2022/10/30 04:33:13;;;;;;;4.53;4.23;;;7.60;99.90;;;;;;5076815;28;20462;-81
2022/10/30 04:35:41;;;;;;;5.30;4.73;;;7.60;99.90;;;;;;5082300;28;20459;-81
2022/10/30 04:38:11;;;;;;;4.73;4.20;;;7.50;99.90;;;;;;5076008;28;20500;-81
2022/10/30 04:40:40;;;;;;;10.20;5.60;;;7.50;99.90;;;;;;5074224;28;20978;-81
2022/10/30 04:43:08;;;;;;;4.97;4.53;;;7.40;99.90;;;;;;5075936;28;21029;-81
2022/10/30 04:45:36;;;;;;;5.13;4.73;;;7.40;99.90;;;;;;5074749;28;20505;-81
2022/10/30 04:48:04;;;;;;;10.80;5.20;;;7.40;99.90;;;;;;5076209;28;20485;-81
2022/10/30 04:50:31;;;;;;;6.83;5.00;;;7.50;99.90;;;;;;5077610;28;20587;-81
2022/10/30 04:53:03;;;;;;;6.43;5.60;;;7.60;99.90;;;;;;5073254;28;21034;-82
2022/10/30 04:55:32;;;;;;;6.10;5.50;;;7.60;99.90;;;;;;5075601;28;20497;-81
2022/10/30 04:58:01;;;;;;;14.30;6.43;;;7.50;99.90;;;;;;5071939;28;22606;-82
2022/10/30 05:00:29;;;;;;;22.33;6.27;;;7.60;99.90;;;;;;5075165;28;20550;-81
2022/10/30 05:02:58;;;;;;;62.60;12.93;;;7.60;99.90;;;;;;5075596;28;21470;-81
2022/10/30 05:05:25;;;;;;;81.60;13.67;;;7.60;99.90;;;;;;5080360;28;20481;-81
2022/10/30 05:07:52;;;;;;;58.43;14.73;;;7.50;99.90;;;;;;5091436;28;20462;-81
2022/10/30 05:10:19;;;;;;;43.47;11.90;;;7.50;99.90;;;;;;5085850;28;20480;-82
2022/10/30 05:12:48;;;;;;;69.50;16.47;;;7.30;99.90;;;;;;5081407;28;20455;-81
2022/10/30 05:15:15;;;;;;;54.07;13.77;;;7.30;99.90;;;;;;5079285;28;20511;-81
2022/10/30 05:17:42;;;;;;;37.53;9.50;;;7.20;99.90;;;;;;5075477;28;20493;-81
2022/10/30 05:20:10;;;;;;;15.57;7.03;;;7.20;99.90;;;;;;5079914;28;21054;-81
2022/10/30 05:22:37;;;;;;;14.33;6.60;;;7.10;99.90;;;;;;5073351;28;21268;-81
2022/10/30 05:25:04;;;;;;;6.77;5.80;;;7.10;99.90;;;;;;5081506;28;20494;-81
2022/10/30 05:27:31;;;;;;;6.20;5.70;;;7.00;99.90;;;;;;5074124;28;20534;-81
2022/10/30 05:29:59;;;;;;;8.70;5.80;;;7.00;99.90;;;;;;5075166;28;21062;-81
2022/10/30 05:32:27;;;;;;;17.97;8.20;;;7.00;99.90;;;;;;5074631;28;20494;-81
2022/10/30 05:34:54;;;;;;;8.77;6.63;;;6.90;99.90;;;;;;5084274;28;20455;-81
2022/10/30 05:37:21;;;;;;;6.53;6.00;;;6.90;99.90;;;;;;5077421;28;20495;-81
2022/10/30 05:39:47;;;;;;;7.90;7.07;;;6.80;99.90;;;;;;5071901;28;20576;-81
2022/10/30 05:42:14;;;;;;;9.63;8.63;;;6.80;99.90;;;;;;5075039;28;20578;-81
2022/10/30 05:44:41;;;;;;;22.20;8.97;;;6.80;99.90;;;;;;5072995;28;20494;-81
2022/10/30 05:47:11;;;;;;;36.33;12.03;;;6.90;99.90;;;;;;5075979;28;20942;-81
2022/10/30 05:49:38;;;;;;;14.50;8.33;;;6.90;99.90;;;;;;5073302;28;20486;-81
2022/10/30 05:52:05;;;;;;;7.23;6.63;;;6.90;99.90;;;;;;5073910;28;20513;-81
2022/10/30 05:54:32;;;;;;;8.30;7.63;;;6.90;99.90;;;;;;5074487;28;22673;-82
2022/10/30 05:56:59;;;;;;;7.23;6.63;;;6.80;99.90;;;;;;5084599;28;20463;-81
2022/10/30 05:59:26;;;;;;;7.20;6.60;;;6.80;99.90;;;;;;5091775;28;20514;-81
2022/10/30 06:01:53;;;;;;;8.43;7.67;;;6.80;99.90;;;;;;5097566;28;20451;-82
2022/10/30 06:04:21;;;;;;;159.93;91.43;;;6.80;99.90;;;;;;5103804;28;20817;-81
2022/10/30 06:06:48;;;;;;;93.60;60.67;;;6.90;99.90;;;;;;5093792;28;20468;-81
2022/10/30 06:09:15;;;;;;;79.20;35.43;;;6.90;99.90;;;;;;5099097;28;20481;-81
2022/10/30 06:11:42;;;;;;;30.50;20.00;;;6.90;99.90;;;;;;5087270;28;20643;-81
2022/10/30 06:14:09;;;;;;;52.73;27.90;;;7.00;99.90;;;;;;5089829;28;20954;-81
2022/10/30 06:16:36;;;;;;;52.60;31.57;;;7.10;99.90;;;;;;5088956;28;20463;-81
2022/10/30 06:19:03;;;;;;;169.17;99.77;;;7.00;99.90;;;;;;5088034;28;20872;-81
2022/10/30 06:21:31;;;;;;;263.30;185.27;;;7.10;99.90;;;;;;5088737;28;20470;-81
2022/10/30 06:23:58;;;;;;;140.43;97.93;;;7.10;99.90;;;;;;5085989;28;20593;-81
2022/10/30 06:26:25;;;;;;;92.63;67.83;;;7.10;99.90;;;;;;5091298;28;20472;-81
2022/10/30 06:28:52;;;;;;;29.40;18.63;;;7.20;99.90;;;;;;5096311;28;20516;-81
2022/10/30 06:31:19;;;;;;;119.70;66.43;;;7.30;99.90;;;;;;5094254;28;20959;-81
2022/10/30 06:33:46;;;;;;;44.80;23.97;;;7.30;99.90;;;;;;5089301;28;20455;-81
2022/10/30 06:36:13;;;;;;;50.90;14.27;;;7.50;99.90;;;;;;5085797;28;20987;-82
2022/10/30 06:38:41;;;;;;;24.50;15.73;;;7.40;99.90;;;;;;5087311;28;20929;-82
2022/10/30 06:41:08;;;;;;;92.10;61.90;;;7.50;99.90;;;;;;5098953;28;20900;-81
2022/10/30 06:43:35;;;;;;;17.83;15.93;;;7.50;99.90;;;;;;5100172;28;20490;-81
2022/10/30 06:46:02;;;;;;;19.33;9.37;;;7.60;99.90;;;;;;5087996;28;20552;-82
2022/10/30 06:48:29;;;;;;;18.87;13.60;;;7.60;99.90;;;;;;5092320;28;20463;-81
2022/10/30 06:50:58;;;;;;;52.63;41.50;;;7.80;99.90;;;;;;5085281;28;20516;-81
2022/10/30 06:53:25;;;;;;;20.40;18.33;;;7.90;99.90;;;;;;5086914;28;20490;-81
2022/10/30 06:55:57;;;;;;;15.60;13.30;;;8.00;99.90;;;;;;5089306;28;20509;-81
2022/10/30 06:58:24;;;;;;;35.60;28.10;;;8.00;99.90;;;;;;5086015;28;20459;-81
2022/10/30 07:00:51;;;;;;;28.90;12.67;;;8.10;99.90;;;;;;5090838;27;20463;-81
2022/10/30 07:03:18;;;;;;;19.33;10.93;;;8.10;99.90;;;;;;5090047;28;20506;-81
2022/10/30 07:05:45;;;;;;;7.60;7.00;;;8.10;99.90;;;;;;5084729;28;20463;-81
2022/10/30 07:08:12;;;;;;;7.23;6.63;;;8.10;99.90;;;;;;5090817;28;20490;-80
2022/10/30 07:10:40;;;;;;;7.40;5.60;;;8.20;99.90;;;;;;5092996;28;20625;-81
2022/10/30 07:13:09;;;;;;;5.47;5.17;;;8.30;99.90;;;;;;5089201;28;20459;-81
2022/10/30 07:15:36;;;;;;;4.90;4.60;;;8.30;99.90;;;;;;5093223;27;20478;-82
2022/10/30 07:18:04;;;;;;;5.67;5.27;;;8.30;99.90;;;;;;5097423;27;20457;-82
2022/10/30 07:20:32;;;;;;;6.33;5.80;;;8.30;99.90;;;;;;5085612;28;20524;-82
2022/10/30 07:22:59;;;;;;;5.60;5.10;;;8.40;99.90;;;;;;5085736;28;20485;-82
2022/10/30 07:25:27;;;;;;;5.47;5.07;;;8.50;99.90;;;;;;5089081;28;21244;-82
2022/10/30 07:27:55;;;;;;;6.00;5.60;;;8.60;99.90;;;;;;5092098;27;20565;-82
2022/10/30 07:30:25;;;;;;;10.50;9.60;;;8.60;99.90;;;;;;5095927;27;20459;-79
2022/10/30 07:32:59;;;;;;;9.40;8.50;;;8.80;99.90;;;;;;5085689;28;20529;-79
2022/10/30 07:35:26;;;;;;;50.13;29.40;;;9.10;99.90;;;;;;5086380;28;20515;-79
2022/10/30 07:37:55;;;;;;;62.50;33.77;;;9.10;99.90;;;;;;5095318;28;20475;-79
2022/10/30 07:40:22;;;;;;;49.03;23.47;;;9.20;99.90;;;;;;5098594;28;20524;-79
2022/10/30 07:42:49;;;;;;;71.63;35.07;;;9.20;99.90;;;;;;5097913;28;20859;-79
2022/10/30 07:45:16;;;;;;;71.07;31.70;;;9.30;99.90;;;;;;5090523;28;21089;-79
2022/10/30 07:47:45;;;;;;;44.93;20.17;;;9.50;99.90;;;;;;5094453;28;20454;-79
2022/10/30 07:50:12;;;;;;;53.33;24.63;;;9.50;99.90;;;;;;5102392;28;20953;-79
2022/10/30 07:52:39;;;;;;;19.07;13.00;;;9.60;99.90;;;;;;5089226;28;20467;-79
2022/10/30 07:55:07;;;;;;;11.27;10.17;;;9.70;99.90;;;;;;5086568;28;20446;-81
2022/10/30 07:57:36;;;;;;;36.50;22.43;;;9.70;99.90;;;;;;5087967;28;20459;-82
2022/10/30 08:00:05;;;;;;;69.73;35.93;;;9.90;99.90;;;;;;5083011;28;20463;-82
2022/10/30 08:02:32;;;;;;;48.70;27.93;;;10.00;99.90;;;;;;5084514;28;20454;-82
2022/10/30 08:05:01;;;;;;;59.30;27.60;;;10.20;99.90;;;;;;5083948;28;20510;-82
2022/10/30 08:07:30;;;;;;;76.90;36.67;;;10.10;99.90;;;;;;5085735;28;20523;-82
2022/10/30 08:09:57;;;;;;;77.13;37.70;;;10.10;99.90;;;;;;5080313;28;20462;-82
2022/10/30 08:12:25;;;;;;;15.57;13.10;;;10.10;99.90;;;;;;5085806;28;20459;-82
2022/10/30 08:14:52;;;;;;;26.67;17.50;;;10.10;99.90;;;;;;5070073;28;20542;-82
2022/10/30 08:17:19;;;;;;;37.20;24.90;;;10.20;99.90;;;;;;5067708;28;20480;-82
2022/10/30 08:19:46;;;;;;;9.20;8.47;;;10.20;99.90;;;;;;5070928;28;20523;-81
2022/10/30 08:22:14;;;;;;;13.43;10.97;;;10.40;99.90;;;;;;5084590;28;20546;-82
2022/10/30 08:24:43;;;;;;;21.43;14.87;;;10.40;99.90;;;;;;5083386;28;20517;-81
2022/10/30 08:27:10;;;;;;;7.57;6.97;;;10.40;99.90;;;;;;5084271;28;20482;-80
2022/10/30 08:29:37;;;;;;;7.50;6.90;;;10.40;99.90;;;;;;5088022;28;21240;-80
2022/10/30 08:32:05;;;;;;;9.60;8.77;;;10.70;99.90;;;;;;5087652;28;20949;-80
2022/10/30 08:34:33;;;;;;;6.73;6.00;;;10.70;99.90;;;;;;5095657;28;20793;-80
2022/10/30 08:37:00;;;;;;;6.77;6.27;;;10.80;99.90;;;;;;5076976;28;20462;-80
2022/10/30 08:39:29;;;;;;;5.70;5.13;;;10.70;99.90;;;;;;5077386;28;20497;-80
2022/10/30 08:41:58;;;;;;;5.00;4.70;;;10.90;99.90;;;;;;5086296;28;20490;-80
2022/10/30 08:44:25;;;;;;;5.80;5.30;;;10.90;99.90;;;;;;5093067;28;20514;-80
2022/10/30 08:46:52;;;;;;;5.17;4.67;;;11.10;99.90;;;;;;5086737;28;20486;-81
2022/10/30 08:49:19;;;;;;;5.27;4.87;;;11.30;99.90;;;;;;5090478;28;20447;-82
2022/10/30 08:51:46;;;;;;;6.20;5.13;;;11.50;99.90;;;;;;5084023;28;20462;-83
2022/10/30 08:54:13;;;;;;;7.73;6.70;;;11.70;99.90;;;;;;5084427;28;20447;-83
2022/10/30 08:56:41;;;;;;;11.57;7.47;;;11.90;99.90;;;;;;5083119;28;20512;-83
2022/10/30 08:59:08;;;;;;;41.80;22.50;;;12.10;99.90;;;;;;5086061;28;20467;-82
2022/10/30 09:01:36;;;;;;;19.83;12.73;;;12.40;99.90;;;;;;5085171;28;20632;-82
2022/10/30 09:04:03;;;;;;;7.17;6.43;;;12.60;99.90;;;;;;5082499;28;20559;-82
2022/10/30 09:06:31;;;;;;;6.30;5.80;;;12.90;99.90;;;;;;5088357;28;20459;-82
2022/10/30 09:08:58;;;;;;;8.00;7.20;;;12.90;99.90;;;;;;5078189;28;20465;-83
2022/10/30 09:11:25;;;;;;;4.90;4.57;;;12.80;99.90;;;;;;5085920;28;20458;-83
2022/10/30 09:13:53;;;;;;;6.10;5.70;;;12.80;99.90;;;;;;5082211;28;21125;-83
2022/10/30 09:16:20;;;;;;;3.80;3.60;;;12.90;99.90;;;;;;5086033;28;20663;-83
2022/10/30 09:18:47;;;;;;;6.60;6.00;;;12.80;99.90;;;;;;5090746;28;21043;-83
2022/10/30 09:21:14;;;;;;;3.73;3.50;;;13.00;99.90;;;;;;5098272;28;20455;-83
2022/10/30 09:23:42;;;;;;;4.03;3.77;;;13.20;99.90;;;;;;5084741;28;20493;-83
2022/10/30 09:26:10;;;;;;;4.47;3.90;;;13.10;99.90;;;;;;5085179;28;20465;-83
2022/10/30 09:28:37;;;;;;;3.27;3.07;;;13.30;99.90;;;;;;5086859;28;20556;-82
2022/10/30 09:31:05;;;;;;;2.90;2.80;;;13.40;99.90;;;;;;5081227;28;20732;-83
2022/10/30 09:33:32;;;;;;;4.80;4.40;;;13.30;99.90;;;;;;5083738;28;20810;-83
2022/10/30 09:36:01;;;;;;;4.17;3.87;;;13.40;99.90;;;;;;5082674;28;20484;-83
2022/10/30 09:38:29;;;;;;;4.43;4.13;;;13.50;99.90;;;;;;5083629;28;20449;-82
2022/10/30 09:41:26;;;;;;;4.33;4.03;;;13.30;99.90;;;;;;5085823;28;20449;-82
2022/10/30 09:44:05;;;;;;;3.47;3.27;;;13.30;99.90;;;;;;5096537;28;20484;-83
2022/10/30 09:46:48;;;;;;;3.60;3.47;;;13.30;99.90;;;;;;5088018;28;20541;-83
2022/10/30 09:49:28;;;;;;;4.63;4.23;;;13.60;99.90;;;;;;5090421;28;20477;-83
2022/10/30 09:52:13;;;;;;;3.30;3.10;;;13.70;99.90;;;;;;5084625;28;20451;-83
2022/10/30 09:54:56;;;;;;;3.90;3.50;;;13.50;99.90;;;;;;5088052;28;20846;-82
2022/10/30 09:57:33;;;;;;;3.27;3.07;;;13.80;99.90;;;;;;5088728;28;20496;-83
2022/10/30 10:00:05;;;;;;;4.20;3.90;;;13.80;99.90;;;;;;5089108;28;20946;-83
2022/10/30 10:02:42;;;;;;;4.53;4.13;;;13.90;99.90;;;;;;5090575;28;20454;-82
2022/10/30 10:05:17;;;;;;;3.77;3.53;;;13.80;99.90;;;;;;5086076;28;20494;-83
2022/10/30 10:07:47;;;;;;;4.80;3.97;;;13.70;99.90;;;;;;5087991;28;20471;-82
2022/10/30 10:10:20;;;;;;;4.13;3.83;;;13.70;99.90;;;;;;5092230;28;20957;-82
2022/10/30 10:12:49;;;;;;;4.20;3.80;;;13.70;99.90;;;;;;5087944;28;20442;-82
2022/10/30 10:15:31;;;;;;;4.60;3.90;;;13.70;99.90;;;;;;5089680;28;20777;-83
2022/10/30 10:18:02;;;;;;;4.23;3.87;;;13.80;99.90;;;;;;5085730;28;20455;-82
2022/10/30 10:20:35;;;;;;;4.57;3.53;;;14.10;99.90;;;;;;5089770;28;20503;-83
2022/10/30 10:23:11;;;;;;;4.20;3.50;;;14.30;99.90;;;;;;5085367;28;20445;-83
2022/10/30 10:25:49;;;;;;;5.40;3.57;;;14.30;99.90;;;;;;5087204;28;20825;-83
2022/10/30 10:28:30;;;;;;;3.60;3.30;;;14.50;99.90;;;;;;5089311;28;20489;-80
2022/10/30 10:31:06;;;;;;;4.80;3.03;;;14.70;99.90;;;;;;5085072;28;20458;-80
2022/10/30 10:33:46;;;;;;;3.20;3.00;;;14.90;99.90;;;;;;5087379;28;20929;-80
2022/10/30 10:36:24;;;;;;;5.10;3.63;;;15.00;99.90;;;;;;5087532;28;20463;-80
2022/10/30 10:39:03;;;;;;;4.77;3.00;;;15.10;99.90;;;;;;5085097;28;20489;-80
2022/10/30 10:41:45;;;;;;;5.60;3.67;;;15.30;99.90;;;;;;5092468;28;20489;-80
2022/10/30 10:44:25;;;;;;;4.20;3.80;;;15.50;99.90;;;;;;5086607;28;20988;-80
2022/10/30 10:47:05;;;;;;;3.53;3.00;;;15.40;99.90;;;;;;5085902;28;20496;-80
2022/10/30 10:49:50;;;;;;;8.73;4.10;;;15.50;99.90;;;;;;5085794;28;20529;-80
2022/10/30 10:52:21;;;;;;;3.80;3.60;;;15.20;99.90;;;;;;5089492;28;20459;-80
2022/10/30 10:54:51;;;;;;;4.27;3.97;;;15.30;99.90;;;;;;5102344;28;20448;-80
2022/10/30 10:57:27;;;;;;;3.90;3.60;;;15.30;99.90;;;;;;5098640;28;20528;-79
2022/10/30 10:59:58;;;;;;;3.50;3.30;;;15.00;99.90;;;;;;5099283;28;20468;-83
2022/10/30 11:02:41;;;;;;;18.00;4.30;;;14.80;99.90;;;;;;5105907;28;20879;-80
2022/10/30 11:05:20;;;;;;;4.27;3.80;;;15.00;99.90;;;;;;5098768;28;20538;-80
2022/10/30 11:07:49;;;;;;;3.87;3.60;;;15.00;99.90;;;;;;5106753;28;20536;-80
2022/10/30 11:10:17;;;;;;;4.70;3.87;;;15.00;99.90;;;;;;5098821;28;20469;-80
2022/10/30 11:12:44;;;;;;;5.60;3.27;;;15.20;99.90;;;;;;5091320;28;20466;-80
2022/10/30 11:15:26;;;;;;;3.07;2.87;;;15.20;99.90;;;;;;5089629;28;20458;-80
2022/10/30 11:18:00;;;;;;;4.53;3.33;;;15.50;99.90;;;;;;5097700;28;20456;-80
2022/10/30 11:20:36;;;;;;;3.60;3.30;;;15.90;99.90;;;;;;5089919;28;20461;-82
2022/10/30 11:23:03;;;;;;;3.47;3.27;;;16.10;99.90;;;;;;5083788;28;20500;-80
2022/10/30 11:25:35;;;;;;;4.57;4.17;;;16.20;99.90;;;;;;5091542;28;20513;-81
2022/10/30 11:28:05;;;;;;;4.30;3.90;;;16.40;99.90;;;;;;5083510;28;20793;-81
2022/10/30 11:30:32;;;;;;;7.40;3.37;;;16.40;99.90;;;;;;5085377;28;20466;-81
2022/10/30 11:33:19;;;;;;;3.43;3.17;;;16.60;99.90;;;;;;5083077;28;21008;-81
2022/10/30 11:35:48;;;;;;;3.30;2.83;;;16.20;99.90;;;;;;5084953;28;20463;-81
2022/10/30 11:38:20;;;;;;;5.90;3.53;;;16.10;99.90;;;;;;5085207;28;20500;-81
2022/10/30 11:40:48;;;;;;;4.80;3.70;;;16.00;99.90;;;;;;5085101;28;20552;-81
2022/10/30 11:43:21;;;;;;;5.03;3.50;;;16.30;99.90;;;;;;5086004;28;20802;-81
2022/10/30 11:45:48;;;;;;;4.00;3.60;;;16.30;99.90;;;;;;5085835;28;20490;-81
2022/10/30 11:48:23;;;;;;;4.13;3.40;;;16.30;99.90;;;;;;5083838;28;20550;-80
2022/10/30 11:51:00;;;;;;;4.30;3.10;;;16.50;99.90;;;;;;5085595;28;20469;-81
2022/10/30 11:53:34;;;;;;;3.80;3.50;;;16.50;99.90;;;;;;5082485;28;20502;-81
2022/10/30 11:56:03;;;;;;;9.33;3.53;;;16.50;99.90;;;;;;5082495;28;20778;-81
2022/10/30 11:58:32;;;;;;;3.40;3.10;;;16.50;99.90;;;;;;5084303;28;20468;-80
2022/10/30 12:01:03;;;;;;;5.63;3.40;;;16.60;99.90;;;;;;5085870;28;20508;-80
2022/10/30 12:03:36;;;;;;;6.50;3.87;;;16.70;99.90;;;;;;5085115;28;20477;-81
2022/10/30 12:06:16;;;;;;;4.60;3.00;;;16.90;99.90;;;;;;5083630;28;20517;-81
2022/10/30 12:08:59;;;;;;;5.07;4.43;;;16.90;99.90;;;;;;5085476;28;20525;-81
2022/10/30 12:11:29;;;;;;;5.97;3.97;;;17.00;99.90;;;;;;5084184;28;20524;-80
2022/10/30 12:13:57;;;;;;;4.30;3.40;;;17.00;99.90;;;;;;5083510;28;20591;-81
2022/10/30 12:16:24;;;;;;;4.90;4.30;;;16.90;99.90;;;;;;5083917;28;20479;-81
2022/10/30 12:19:02;;;;;;;3.20;3.00;;;16.80;99.90;;;;;;5087761;28;20486;-81
2022/10/30 12:21:36;;;;;;;3.63;3.37;;;16.80;99.90;;;;;;5084582;28;20537;-81
2022/10/30 12:24:09;;;;;;;3.60;3.30;;;16.90;99.90;;;;;;5085869;28;20464;-81
2022/10/30 12:26:39;;;;;;;3.93;3.60;;;17.00;99.90;;;;;;5093059;28;20443;-81
2022/10/30 12:29:12;;;;;;;4.17;3.77;;;17.10;99.90;;;;;;5091431;28;20815;-81
2022/10/30 12:31:45;;;;;;;5.83;3.40;;;17.10;99.90;;;;;;5089063;28;21011;-80
2022/10/30 12:34:33;;;;;;;6.60;3.87;;;17.00;99.90;;;;;;5087350;28;20455;-81
2022/10/30 12:37:08;;;;;;;4.50;4.10;;;17.20;99.90;;;;;;5084794;28;20895;-81
2022/10/30 12:39:48;;;;;;;4.40;4.07;;;17.10;99.90;;;;;;5088752;28;20482;-81
2022/10/30 12:42:17;;;;;;;3.57;3.37;;;17.10;99.90;;;;;;5084585;28;20466;-81
2022/10/30 12:44:48;;;;;;;4.07;3.80;;;17.20;99.90;;;;;;5084777;28;20551;-81
2022/10/30 12:47:25;;;;;;;6.50;4.40;;;17.20;99.90;;;;;;5080696;28;20459;-81
2022/10/30 12:49:54;;;;;;;4.10;3.70;;;17.20;99.90;;;;;;5082832;28;20543;-81
2022/10/30 12:52:30;;;;;;;4.67;3.87;;;17.30;99.90;;;;;;5085472;28;20865;-81
2022/10/30 12:55:03;;;;;;;5.30;4.10;;;17.40;99.90;;;;;;5086267;28;20483;-81
2022/10/30 12:57:33;;;;;;;4.23;3.83;;;17.40;99.90;;;;;;5087257;28;20454;-81
2022/10/30 13:00:06;;;;;;;4.33;3.93;;;17.50;99.90;;;;;;5081319;28;21030;-81